MST,Max TemperatureF,Mean TemperatureF,Min TemperatureF,Max Dew PointF,MeanDew PointF,Min DewpointF,Max Humidity, Mean Humidity, Min Humidity, Max Sea Level PressureIn, Mean Sea Level PressureIn, Min Sea Level PressureIn, Max VisibilityMiles, Mean VisibilityMiles, Min VisibilityMiles, Max Wind SpeedMPH, Mean Wind SpeedMPH, Max Gust SpeedMPH,PrecipitationIn, CloudCover, Events, WindDirDegrees
2013-3-1,82,63,44,54,45,34,93,58,21,29.93,29.87,29.79,14,11,10,16,8,,0.00,1,,321
2013-3-2,87,64,42,54,41,28,93,50,18,30.02,29.94,29.89,15,12,10,16,9,,0.00,0,,306
2013-3-3,93,70,46,43,34,32,67,35,12,30.01,29.93,29.87,15,12,10,14,9,,0.00,0,,334
2013-3-4,86,65,44,52,40,32,66,45,25,30.00,29.96,29.88,12,10,10,67,12,,0.00,0,,335
2013-3-5,82,63,44,50,42,36,76,51,25,30.03,29.95,29.87,12,10,8,14,8,,0.00,5,,290
2013-3-6,80,63,46,57,50,41,88,65,30,29.99,29.93,29.87,14,11,8,13,8,,0.00,5,,134
2013-3-7,77,66,55,59,54,52,88,72,44,29.99,29.94,29.88,15,10,8,14,8,,0.00,6,,94
2013-3-8,75,65,55,57,53,48,88,69,41,30.04,29.98,29.93,12,11,10,13,7,,0.00,6,,325
2013-3-9,80,65,50,55,50,45,82,61,39,29.98,29.92,29.86,12,11,10,17,8,,0.00,5,,278
2013-3-10,75,60,46,50,45,43,87,59,34,29.94,29.89,29.85,15,12,10,17,9,,0.00,0,,290
2013-3-11,73,58,42,52,44,36,82,64,33,29.94,29.88,29.81,15,12,10,13,8,,0.00,4,,242
2013-3-12,73,60,48,55,50,43,88,71,43,29.97,29.91,29.86,12,10,6,12,7,,0.00,6,,68
2013-3-13,78,63,48,57,51,45,100,71,34,30.01,29.95,29.87,14,8,0,14,7,,0.00,5,Fog,257
2013-3-14,84,68,53,57,52,46,82,63,35,29.99,29.94,29.89,15,11,8,12,8,,0.00,7,,179
2013-3-15,82,71,60,63,53,46,83,60,28,30.01,29.94,29.86,15,11,6,13,8,,0.00,7,,217
2013-3-16,82,66,50,57,53,46,94,65,28,29.97,29.91,29.84,15,10,0,12,7,,0.00,3,Fog,139
2013-3-17,80,66,53,59,52,46,88,65,39,29.99,29.95,29.89,15,12,10,12,8,,0.00,0,,2
2013-3-18,82,68,53,61,55,45,100,72,39,29.99,29.94,29.88,15,9,0,14,8,,0.00,0,Fog,299
2013-3-19,84,67,50,57,47,41,82,55,23,29.98,29.90,29.84,15,12,5,18,9,,0.00,0,,292
2013-3-20,82,65,48,59,51,41,88,65,37,29.92,29.86,29.78,15,10,1,14,8,,0.00,0,,283
2013-3-21,80,66,53,61,54,50,94,71,34,29.89,29.85,29.78,15,7,0,14,8,,0.00,2,Fog,121
2013-3-22,78,66,55,61,57,50,100,76,51,29.93,29.87,29.83,15,7,0,15,9,,0.00,1,Fog,266
2013-3-23,78,66,55,65,56,50,94,72,44,29.96,29.90,29.82,15,9,0,14,8,,0.00,1,Fog,300
2013-3-24,82,65,48,66,54,43,94,66,37,29.91,29.83,29.75,15,10,1,17,8,,0.00,1,,317
2013-3-25,78,64,51,66,55,45,82,65,44,29.91,29.85,29.80,15,11,8,15,8,,0.00,2,,315
2013-3-26,87,72,57,67,59,50,88,66,40,29.93,29.87,29.80,15,11,8,14,6,,0.00,2,,306
2013-3-27,84,72,60,67,59,54,94,71,38,30.02,29.95,29.89,15,9,0,16,4,,0.00,4,Fog,104
2013-3-28,87,72,57,65,54,43,88,58,21,29.99,29.96,29.90,15,11,2,16,7,,0.00,4,,314
2013-3-29,89,71,53,66,50,37,86,45,23,30.00,29.93,29.86,15,12,8,21,8,,0.00,3,,326
2013-3-30,89,72,55,65,51,39,72,44,21,29.94,29.87,29.78,15,12,10,18,8,,0.00,5,,244
2013-3-31,84,72,60,70,59,52,94,64,37,29.93,29.88,29.81,15,11,1,14,8,,0.00,6,,132